VIVA127 SEGU-SEQM
Flight info
| Callsign | VIVA127 |
|---|---|
| Flight time | 0h 29m |
| Altitude | 24000 |
| Route | REGAP2 PAMIS G675 QIT |
| Aircraft | A20N/M-SDE2E3FGHIRWXY/LB1 |
Departure
| Time | 2026-04-28 21:08 |
|---|---|
| Airport | José Joaquín de Olmedo International Airport (SEGU) |
Arrival
| Time | 2026-04-28 21:37 |
|---|---|
| Airport | Mariscal Sucre International Airport (SEQM) |
| Time | Latitude | Longitude | Altitude | Speed | Heading |
|---|---|---|---|---|---|
| 2026-04-28 20:52 | -2.15025 | -79.88414 | 27 ft | 0 kts | 299° |
| 2026-04-28 21:00 | -2.15031 | -79.88402 | 27 ft | 3 kts | 299° |
| 2026-04-28 21:00 | -2.15040 | -79.88386 | 25 ft | 3 kts | 299° |
| 2026-04-28 21:00 | -2.15048 | -79.88370 | 29 ft | 3 kts | 258° |
| 2026-04-28 21:00 | -2.15043 | -79.88359 | 27 ft | 0 kts | 212° |
| 2026-04-28 21:03 | -2.15050 | -79.88359 | 29 ft | 8 kts | 183° |
| 2026-04-28 21:03 | -2.15054 | -79.88350 | 28 ft | 1 kts | 47° |
| 2026-04-28 21:03 | -2.14969 | -79.88313 | 26 ft | 15 kts | 24° |
| 2026-04-28 21:03 | -2.14883 | -79.88258 | 25 ft | 15 kts | 37° |
| 2026-04-28 21:04 | -2.14807 | -79.88186 | 25 ft | 15 kts | 52° |
| 2026-04-28 21:04 | -2.14800 | -79.88176 | 25 ft | 1 kts | 57° |
| 2026-04-28 21:04 | -2.14808 | -79.88120 | 26 ft | 11 kts | 107° |
| 2026-04-28 21:04 | -2.14810 | -79.88046 | 25 ft | 10 kts | 62° |
| 2026-04-28 21:05 | -2.14761 | -79.87994 | 25 ft | 11 kts | 38° |
| 2026-04-28 21:05 | -2.14748 | -79.87984 | 25 ft | 1 kts | 37° |
| 2026-04-28 21:05 | -2.14712 | -79.87957 | 25 ft | 8 kts | 37° |
| 2026-04-28 21:05 | -2.14651 | -79.87880 | 26 ft | 18 kts | 75° |
| 2026-04-28 21:06 | -2.14670 | -79.87784 | 26 ft | 11 kts | 140° |
| 2026-04-28 21:06 | -2.14730 | -79.87786 | 24 ft | 0 kts | 207° |
| 2026-04-28 21:07 | -2.14731 | -79.87787 | 24 ft | 1 kts | 207° |
| 2026-04-28 21:07 | -2.14861 | -79.87854 | 28 ft | 65 kts | 207° |
| 2026-04-28 21:07 | -2.15564 | -79.88256 | 29 ft | 167 kts | 211° |
| 2026-04-28 21:07 | -2.16718 | -79.88903 | 466 ft | 212 kts | 208° |
| 2026-04-28 21:08 | -2.18057 | -79.89682 | 1397 ft | 229 kts | 211° |
| 2026-04-28 21:08 | -2.19464 | -79.90374 | 2942 ft | 220 kts | 192° |
| 2026-04-28 21:08 | -2.20899 | -79.90216 | 4308 ft | 202 kts | 152° |
| 2026-04-28 21:08 | -2.21791 | -79.89223 | 5187 ft | 193 kts | 107° |
| 2026-04-28 21:09 | -2.21736 | -79.87918 | 5728 ft | 195 kts | 62° |
| 2026-04-28 21:09 | -2.20769 | -79.87015 | 5955 ft | 193 kts | 17° |
| 2026-04-28 21:09 | -2.19394 | -79.86756 | 6275 ft | 216 kts | 12° |
| 2026-04-28 21:09 | -2.18402 | -79.86403 | 6543 ft | 238 kts | 24° |
| 2026-04-28 21:10 | -2.16298 | -79.85338 | 7259 ft | 269 kts | 28° |
| 2026-04-28 21:10 | -2.14626 | -79.84391 | 8110 ft | 278 kts | 30° |
| 2026-04-28 21:10 | -2.12939 | -79.83389 | 9059 ft | 284 kts | 31° |
| 2026-04-28 21:10 | -2.11234 | -79.82351 | 9989 ft | 289 kts | 32° |
| 2026-04-28 21:11 | -2.09491 | -79.81278 | 10622 ft | 307 kts | 32° |
| 2026-04-28 21:11 | -2.07616 | -79.80114 | 11086 ft | 325 kts | 33° |
| 2026-04-28 21:11 | -2.05661 | -79.78898 | 11767 ft | 334 kts | 33° |
| 2026-04-28 21:11 | -2.03667 | -79.77656 | 12541 ft | 340 kts | 33° |
| 2026-04-28 21:12 | -2.01668 | -79.76411 | 13377 ft | 344 kts | 33° |
| 2026-04-28 21:12 | -1.99619 | -79.75133 | 14170 ft | 348 kts | 33° |
| 2026-04-28 21:12 | -1.97557 | -79.73847 | 14928 ft | 352 kts | 33° |
| 2026-04-28 21:12 | -1.95459 | -79.72538 | 15702 ft | 356 kts | 33° |
| 2026-04-28 21:13 | -1.93339 | -79.71216 | 16497 ft | 360 kts | 33° |
| 2026-04-28 21:13 | -1.91214 | -79.69890 | 17247 ft | 364 kts | 33° |
| 2026-04-28 21:13 | -1.89070 | -79.68553 | 17970 ft | 368 kts | 33° |
| 2026-04-28 21:13 | -1.86875 | -79.67184 | 18594 ft | 372 kts | 33° |
| 2026-04-28 21:14 | -1.84650 | -79.65797 | 19152 ft | 377 kts | 33° |
| 2026-04-28 21:14 | -1.82410 | -79.64400 | 19712 ft | 381 kts | 33° |
| 2026-04-28 21:14 | -1.80167 | -79.63001 | 20277 ft | 385 kts | 33° |
| 2026-04-28 21:14 | -1.77873 | -79.61570 | 20837 ft | 390 kts | 33° |
| 2026-04-28 21:15 | -1.75553 | -79.60124 | 21408 ft | 394 kts | 33° |
| 2026-04-28 21:15 | -1.73212 | -79.58663 | 21968 ft | 398 kts | 33° |
| 2026-04-28 21:15 | -1.70864 | -79.57199 | 22538 ft | 402 kts | 33° |
| 2026-04-28 21:15 | -1.68479 | -79.55712 | 22854 ft | 404 kts | 33° |
| 2026-04-28 21:16 | -1.66083 | -79.54218 | 22912 ft | 405 kts | 33° |
| 2026-04-28 21:16 | -1.63714 | -79.52742 | 22931 ft | 406 kts | 33° |
| 2026-04-28 21:16 | -1.63115 | -79.52368 | 22931 ft | 406 kts | 33° |
| 2026-04-28 21:16 | -1.60695 | -79.50859 | 22930 ft | 407 kts | 33° |
| 2026-04-28 21:17 | -1.58294 | -79.49362 | 22931 ft | 407 kts | 33° |
| 2026-04-28 21:17 | -1.55886 | -79.47861 | 22931 ft | 407 kts | 33° |
| 2026-04-28 21:17 | -1.53476 | -79.46358 | 22931 ft | 407 kts | 33° |
| 2026-04-28 21:17 | -1.51099 | -79.44876 | 22930 ft | 407 kts | 33° |
| 2026-04-28 21:18 | -1.48686 | -79.43372 | 22943 ft | 407 kts | 33° |
| 2026-04-28 21:18 | -1.46276 | -79.41870 | 22995 ft | 406 kts | 33° |
| 2026-04-28 21:18 | -1.43907 | -79.40393 | 22998 ft | 405 kts | 33° |
| 2026-04-28 21:18 | -1.41517 | -79.38903 | 22998 ft | 404 kts | 33° |
| 2026-04-28 21:19 | -1.39130 | -79.37415 | 23000 ft | 404 kts | 33° |
| 2026-04-28 21:19 | -1.36730 | -79.35919 | 22999 ft | 404 kts | 33° |
| 2026-04-28 21:19 | -1.34371 | -79.34448 | 23007 ft | 404 kts | 33° |
| 2026-04-28 21:19 | -1.31978 | -79.32956 | 23007 ft | 404 kts | 33° |
| 2026-04-28 21:20 | -1.29592 | -79.31469 | 23007 ft | 404 kts | 33° |
| 2026-04-28 21:20 | -1.27203 | -79.29980 | 23006 ft | 404 kts | 33° |
| 2026-04-28 21:20 | -1.24813 | -79.28490 | 23007 ft | 404 kts | 33° |
| 2026-04-28 21:20 | -1.23230 | -79.27503 | 23072 ft | 404 kts | 33° |
| 2026-04-28 21:21 | -1.20065 | -79.25530 | 23083 ft | 404 kts | 33° |
| 2026-04-28 21:21 | -1.17677 | -79.24042 | 23083 ft | 404 kts | 33° |
| 2026-04-28 21:21 | -1.15297 | -79.22559 | 23083 ft | 404 kts | 33° |
| 2026-04-28 21:21 | -1.12905 | -79.21068 | 23084 ft | 404 kts | 33° |
| 2026-04-28 21:22 | -1.10542 | -79.19595 | 23084 ft | 404 kts | 33° |
| 2026-04-28 21:22 | -1.08150 | -79.18104 | 23084 ft | 405 kts | 33° |
| 2026-04-28 21:22 | -1.05756 | -79.16612 | 23084 ft | 405 kts | 33° |
| 2026-04-28 21:22 | -1.04168 | -79.15622 | 23073 ft | 405 kts | 33° |
| 2026-04-28 21:23 | -1.00959 | -79.13623 | 23081 ft | 405 kts | 33° |
| 2026-04-28 21:23 | -0.98564 | -79.12130 | 23144 ft | 405 kts | 33° |
| 2026-04-28 21:23 | -0.96198 | -79.10656 | 23141 ft | 405 kts | 33° |
| 2026-04-28 21:23 | -0.93805 | -79.09164 | 23143 ft | 405 kts | 33° |
| 2026-04-28 21:24 | -0.91404 | -79.07668 | 23143 ft | 405 kts | 33° |
| 2026-04-28 21:24 | -0.89001 | -79.06171 | 23138 ft | 406 kts | 33° |
| 2026-04-28 21:24 | -0.86597 | -79.04673 | 23141 ft | 405 kts | 33° |
| 2026-04-28 21:24 | -0.84238 | -79.03203 | 23138 ft | 404 kts | 33° |
| 2026-04-28 21:25 | -0.81852 | -79.01717 | 23142 ft | 404 kts | 33° |
| 2026-04-28 21:25 | -0.79465 | -79.00215 | 23139 ft | 404 kts | 34° |
| 2026-04-28 21:25 | -0.77097 | -78.98693 | 23139 ft | 403 kts | 34° |
| 2026-04-28 21:25 | -0.74738 | -78.97160 | 23181 ft | 404 kts | 34° |
| 2026-04-28 21:26 | -0.72413 | -78.95645 | 23181 ft | 404 kts | 34° |
| 2026-04-28 21:26 | -0.70821 | -78.94607 | 23179 ft | 404 kts | 34° |
| 2026-04-28 21:26 | -0.69257 | -78.93588 | 23181 ft | 404 kts | 34° |
| 2026-04-28 21:27 | -0.56264 | -78.85146 | 23174 ft | 404 kts | 34° |
| 2026-04-28 21:28 | -0.53902 | -78.83612 | 23211 ft | 404 kts | 34° |
| 2026-04-28 21:28 | -0.51575 | -78.82102 | 23218 ft | 404 kts | 34° |
| 2026-04-28 21:28 | -0.49302 | -78.80447 | 23217 ft | 404 kts | 42° |
| 2026-04-28 21:28 | -0.47368 | -78.78423 | 23181 ft | 400 kts | 53° |
| 2026-04-28 21:29 | -0.45968 | -78.76074 | 22793 ft | 392 kts | 66° |
| 2026-04-28 21:29 | -0.44933 | -78.73591 | 22533 ft | 380 kts | 69° |
| 2026-04-28 21:29 | -0.44001 | -78.71161 | 22292 ft | 369 kts | 70° |
| 2026-04-28 21:29 | -0.43113 | -78.68803 | 22081 ft | 354 kts | 70° |
| 2026-04-28 21:30 | -0.42269 | -78.66557 | 21831 ft | 337 kts | 70° |
| 2026-04-28 21:30 | -0.41459 | -78.64403 | 21428 ft | 326 kts | 70° |
| 2026-04-28 21:30 | -0.40674 | -78.62312 | 20776 ft | 325 kts | 70° |
| 2026-04-28 21:30 | -0.39877 | -78.60191 | 20082 ft | 325 kts | 70° |
| 2026-04-28 21:31 | -0.39079 | -78.58069 | 19408 ft | 326 kts | 70° |
| 2026-04-28 21:31 | -0.38279 | -78.55941 | 18678 ft | 327 kts | 70° |
| 2026-04-28 21:31 | -0.37477 | -78.53809 | 17712 ft | 334 kts | 70° |
| 2026-04-28 21:31 | -0.36655 | -78.51624 | 16733 ft | 338 kts | 70° |
| 2026-04-28 21:32 | -0.35819 | -78.49404 | 15778 ft | 341 kts | 70° |
| 2026-04-28 21:32 | -0.34989 | -78.47199 | 14864 ft | 342 kts | 70° |
| 2026-04-28 21:32 | -0.34150 | -78.44969 | 13945 ft | 342 kts | 70° |
| 2026-04-28 21:32 | -0.33311 | -78.42739 | 13016 ft | 342 kts | 69° |
| 2026-04-28 21:33 | -0.32472 | -78.40508 | 12041 ft | 342 kts | 68° |
| 2026-04-28 21:33 | -0.31645 | -78.38313 | 11199 ft | 337 kts | 69° |
| 2026-04-28 21:33 | -0.30777 | -78.36183 | 10712 ft | 321 kts | 59° |
| 2026-04-28 21:33 | -0.29263 | -78.34672 | 10530 ft | 300 kts | 29° |
| 2026-04-28 21:34 | -0.27331 | -78.34213 | 10438 ft | 279 kts | 356° |
| 2026-04-28 21:34 | -0.25508 | -78.34544 | 10330 ft | 258 kts | 348° |
| 2026-04-28 21:34 | -0.23844 | -78.34892 | 10055 ft | 231 kts | 352° |
| 2026-04-28 21:34 | -0.22307 | -78.35028 | 9681 ft | 211 kts | 359° |
| 2026-04-28 21:35 | -0.20905 | -78.35059 | 9385 ft | 197 kts | 358° |
| 2026-04-28 21:35 | -0.19582 | -78.35122 | 9141 ft | 179 kts | 359° |
| 2026-04-28 21:35 | -0.18408 | -78.35200 | 8984 ft | 161 kts | 360° |
| 2026-04-28 21:35 | -0.17315 | -78.35263 | 8608 ft | 156 kts | 1° |
| 2026-04-28 21:36 | -0.16128 | -78.35307 | 8364 ft | 165 kts | 1° |
| 2026-04-28 21:36 | -0.15066 | -78.35332 | 8137 ft | 141 kts | 357° |
| 2026-04-28 21:36 | -0.14137 | -78.35375 | 7947 ft | 130 kts | 358° |
| 2026-04-28 21:36 | -0.13287 | -78.35416 | 7889 ft | 111 kts | 359° |
| 2026-04-28 21:37 | -0.12573 | -78.35432 | 7859 ft | 95 kts | 358° |
| 2026-04-28 21:37 | -0.12201 | -78.35445 | 7841 ft | 52 kts | 356° |
| 2026-04-28 21:37 | -0.12104 | -78.35452 | 7834 ft | 0 kts | 356° |
| 2026-04-28 21:37 | -0.12030 | -78.35457 | 7834 ft | 21 kts | 356° |
| 2026-04-28 21:38 | -0.11880 | -78.35465 | 7827 ft | 22 kts | 358° |
| 2026-04-28 21:38 | -0.11736 | -78.35447 | 7824 ft | 0 kts | 19° |
| 2026-04-28 21:38 | -0.11716 | -78.35443 | 7824 ft | 17 kts | 10° |
| 2026-04-28 21:38 | -0.11670 | -78.35495 | 7826 ft | 14 kts | 289° |
| 2026-04-28 21:39 | -0.11647 | -78.35554 | 7825 ft | 10 kts | 301° |
| 2026-04-28 21:39 | -0.11645 | -78.35617 | 7824 ft | 7 kts | 238° |
| 2026-04-28 21:39 | -0.11702 | -78.35640 | 7824 ft | 12 kts | 188° |
| 2026-04-28 21:39 | -0.11775 | -78.35638 | 7823 ft | 9 kts | 177° |
| 2026-04-28 21:40 | -0.11832 | -78.35636 | 7825 ft | 7 kts | 177° |
| 2026-04-28 21:40 | -0.11877 | -78.35633 | 7830 ft | 5 kts | 177° |
| 2026-04-28 21:40 | -0.11910 | -78.35632 | 7831 ft | 9 kts | 177° |
| 2026-04-28 21:40 | -0.12185 | -78.35618 | 7842 ft | 35 kts | 176° |
| 2026-04-28 21:41 | -0.12247 | -78.35614 | 7841 ft | 11 kts | 177° |
| 2026-04-28 21:41 | -0.12338 | -78.35629 | 7844 ft | 20 kts | 221° |
| 2026-04-28 21:41 | -0.12363 | -78.35753 | 7839 ft | 12 kts | 272° |
| 2026-04-28 21:41 | -0.12364 | -78.35826 | 7843 ft | 10 kts | 271° |
| 2026-04-28 21:42 | -0.12367 | -78.35887 | 7840 ft | 8 kts | 265° |
| 2026-04-28 21:42 | -0.12370 | -78.35929 | 7845 ft | 1 kts | 268° |
| 2026-04-28 21:42 | -0.12370 | -78.35931 | 7845 ft | 0 kts | 268° |